EET,Max TemperatureF,Mean TemperatureF,Min TemperatureF,Max Dew PointF,MeanDew PointF,Min DewpointF,Max Humidity, Mean Humidity, Min Humidity, Max Sea Level PressureIn, Mean Sea Level PressureIn, Min Sea Level PressureIn, Max VisibilityMiles, Mean VisibilityMiles, Min VisibilityMiles, Max Wind SpeedMPH, Mean Wind SpeedMPH, Max Gust SpeedMPH,PrecipitationIn, CloudCover, Events, WindDirDegrees
2013-1-1,75,65,55,55,50,45,88,62,41,30.09,30.03,29.98,6,6,6,20,12,,0.00,,,318
2013-1-2,73,64,55,46,42,34,63,46,24,30.19,30.14,30.09,6,6,6,21,14,,0.00,,,317
2013-1-3,78,66,55,54,45,36,68,49,27,30.24,30.17,30.12,6,6,6,17,11,,0.00,,,321
2013-1-4,78,64,51,52,44,39,67,49,24,30.12,30.05,29.98,6,6,6,16,10,,0.00,,,318
2013-1-5,75,64,53,50,43,39,88,48,27,30.01,29.97,29.89,6,6,6,16,10,,0.00,1,,320
2013-1-6,71,62,52,43,38,34,62,42,18,30.01,29.95,29.89,6,6,6,21,12,,0.00,3,,299
2013-1-7,69,60,51,45,36,33,55,39,17,30.09,30.00,29.92,6,5,5,25,12,,0.00,2,,296
2013-1-8,70,60,50,37,35,34,58,41,17,30.09,30.04,29.98,6,6,6,16,10,,0.00,1,,288
2013-1-9,67,60,53,46,39,32,67,46,26,30.15,30.03,29.95,6,6,5,28,13,,0.00,3,,315
2013-1-10,66,56,46,39,33,30,58,44,20,30.27,30.18,30.12,6,6,6,21,17,,0.00,2,,315
2013-1-11,68,57,46,41,35,30,62,45,24,30.36,30.27,30.21,6,6,6,12,9,,0.00,1,,322
2013-1-12,71,60,50,43,38,30,62,45,24,30.24,30.16,30.09,6,6,6,18,13,,0.00,3,,316
2013-1-13,73,62,52,46,41,35,63,46,18,30.15,30.11,30.06,6,6,6,24,17,,0.00,1,,322
2013-1-14,76,64,52,50,43,34,68,48,20,30.21,30.15,30.12,6,6,6,17,13,,0.00,,,325
2013-1-15,77,62,48,46,37,28,51,41,31,30.21,30.15,30.09,6,6,6,14,9,,0.00,,,322
2013-1-16,83,66,50,54,41,30,68,43,20,30.14,30.08,30.01,6,6,6,9,6,,0.00,,,308
2013-1-17,83,70,57,56,42,18,63,41,7,30.06,30.01,29.95,6,6,6,15,5,,0.00,,,332
2013-1-18,82,71,60,55,37,14,60,33,7,29.98,29.93,29.86,6,6,6,12,7,,0.00,3,,339
2013-1-19,81,68,54,52,39,25,56,37,19,30.09,30.02,29.95,6,6,6,14,7,,0.00,,,323
2013-1-20,82,68,53,46,33,23,63,31,9,30.18,30.09,30.06,6,6,6,14,9,,0.00,,,326
2013-1-21,83,66,48,59,42,25,77,45,20,30.11,30.05,30.01,6,6,6,8,5,,0.00,,,192
2013-1-22,83,70,57,68,60,50,88,74,52,30.04,29.99,29.95,6,6,6,12,3,,0.00,2,,160
2013-1-23,78,68,58,61,53,39,94,64,34,30.09,30.04,30.01,6,5,5,23,12,,0.00,,,330
2013-1-24,82,68,53,57,47,37,73,52,28,30.06,29.99,29.92,6,6,6,12,7,,0.00,6,,329
2013-1-25,83,74,64,66,56,52,73,57,36,29.98,29.93,29.89,6,6,6,6,2,,0.00,6,,184
2013-1-26,82,73,64,70,60,48,94,66,40,29.94,29.88,29.83,6,6,6,13,5,,0.00,6,,124
2013-1-27,77,72,66,70,50,36,94,52,22,29.95,29.89,29.83,6,5,4,23,12,,0.00,6,,330
2013-1-28,73,65,57,57,49,36,88,63,32,29.98,29.89,29.80,6,6,5,23,6,,0.04,5,Rain,334
2013-1-29,72,62,51,49,41,34,63,48,25,30.06,30.03,29.98,6,6,6,20,14,,0.00,,,329
2013-1-30,69,62,55,45,39,28,67,45,23,29.98,29.93,29.86,6,6,6,15,10,,0.00,6,,305
2013-1-31,69,59,49,45,37,30,63,40,22,30.01,29.94,29.89,6,5,1,28,12,,0.00,2,,291